Time;durP1;ratioP1;P1;durP2;ratioP2;P2;SDS_P1;SDS_P2;PMS_P1;PMS_P2;Temp;Humidity;BMP_temperature;BMP_pressure;BME280_temperature;BME280_humidity;BME280_pressure;Samples;Min_cycle;Max_cycle;Signal;HPM_P1;HPM_P2
2023/08/26 00:00:07;;;;;;;13.23;8.73;;;;;;;17.14;100.00;100078.31;701855;28;782;-63
2023/08/26 00:00:30;;;;;;;12.02;8.57;;;;;;;17.13;100.00;100073.97;703154;28;1103;-64
2023/08/26 00:00:51;;;;;;;11.13;8.10;;;;;;;17.12;100.00;100075.75;702368;28;1829;-64
2023/08/26 00:01:11;;;;;;;11.32;8.23;;;;;;;17.13;100.00;100071.34;701829;27;4330;-63
2023/08/26 00:01:32;;;;;;;12.33;8.10;;;;;;;17.12;100.00;100080.19;702273;28;855;-63
2023/08/26 00:01:52;;;;;;;9.93;7.83;;;;;;;17.13;100.00;100072.19;702753;28;1787;-63
2023/08/26 00:02:13;;;;;;;11.93;8.13;;;;;;;17.15;100.00;100072.13;702095;28;1305;-63
2023/08/26 00:02:34;;;;;;;12.13;8.20;;;;;;;17.17;100.00;100068.50;701564;28;868;-62
2023/08/26 00:02:54;;;;;;;12.07;8.20;;;;;;;17.17;100.00;100072.94;701515;28;1252;-63
2023/08/26 00:03:15;;;;;;;11.30;8.47;;;;;;;17.15;100.00;100072.13;702513;28;886;-63
2023/08/26 00:03:35;;;;;;;11.83;8.50;;;;;;;17.16;100.00;100076.47;702602;28;938;-65
2023/08/26 00:03:56;;;;;;;12.33;8.33;;;;;;;17.18;100.00;100075.50;701192;28;1980;-63
2023/08/26 00:04:16;;;;;;;12.93;7.93;;;;;;;17.21;100.00;100071.00;702181;28;4287;-63
2023/08/26 00:04:37;;;;;;;13.30;8.00;;;;;;;17.16;100.00;100065.91;702488;28;1546;-63
2023/08/26 00:04:57;;;;;;;9.88;7.75;;;;;;;17.16;100.00;100066.75;702408;28;1705;-63
2023/08/26 00:05:17;;;;;;;9.13;7.73;;;;;;;17.16;100.00;100069.41;702854;28;919;-63
2023/08/26 00:05:38;;;;;;;10.90;7.70;;;;;;;17.16;100.00;100069.41;703282;28;1250;-63
2023/08/26 00:05:58;;;;;;;10.90;7.73;;;;;;;17.16;100.00;100066.75;700169;28;1947;-64
2023/08/26 00:06:19;;;;;;;11.50;7.90;;;;;;;17.13;100.00;100073.97;702591;28;935;-64
2023/08/26 00:06:39;;;;;;;11.23;7.50;;;;;;;17.14;100.00;100073.91;703058;28;912;-63
2023/08/26 00:07:00;;;;;;;11.45;7.43;;;;;;;17.14;100.00;100073.91;702621;28;2357;-63
2023/08/26 00:07:21;;;;;;;13.43;7.77;;;;;;;17.14;100.00;100073.03;701482;28;4395;-64
2023/08/26 00:07:41;;;;;;;13.35;8.10;;;;;;;17.13;100.00;100069.53;702085;28;1384;-63
2023/08/26 00:08:01;;;;;;;10.70;7.73;;;;;;;17.12;100.00;100070.47;702818;28;2341;-63
2023/08/26 00:08:22;;;;;;;12.13;8.02;;;;;;;17.14;100.00;100078.31;704133;28;1391;-64
2023/08/26 00:08:42;;;;;;;12.80;8.30;;;;;;;17.14;100.00;100068.63;701076;28;2372;-64
2023/08/26 00:09:03;;;;;;;11.15;7.68;;;;;;;17.22;100.00;100064.81;703099;28;1216;-63
2023/08/26 00:09:23;;;;;;;11.77;8.40;;;;;;;17.22;100.00;100073.56;704388;28;1199;-63
2023/08/26 00:09:44;;;;;;;11.23;8.07;;;;;;;17.21;100.00;100073.63;700442;28;1702;-63
2023/08/26 00:10:05;;;;;;;11.47;8.03;;;;;;;17.22;100.00;100075.38;702799;28;844;-64
2023/08/26 00:10:25;;;;;;;11.45;8.00;;;;;;;17.20;100.00;100070.16;701327;28;4530;-63
2023/08/26 00:10:46;;;;;;;10.90;8.40;;;;;;;17.20;100.00;100072.78;702009;28;2029;-63
2023/08/26 00:11:06;;;;;;;11.90;8.27;;;;;;;17.18;100.00;100067.56;701722;28;722;-63
2023/08/26 00:11:26;;;;;;;11.38;7.95;;;;;;;17.17;100.00;100071.13;702318;28;805;-63
2023/08/26 00:11:49;;;;;;;12.73;7.93;;;;;;;17.17;100.00;100070.28;700559;28;2369;-63
2023/08/26 00:12:09;;;;;;;12.63;8.18;;;;;;;17.18;100.00;100067.56;702452;28;870;-62
2023/08/26 00:12:30;;;;;;;10.83;8.20;;;;;;;17.18;100.00;100069.34;702579;28;1325;-62
2023/08/26 00:12:51;;;;;;;12.77;8.03;;;;;;;17.17;100.00;100071.13;701298;28;1562;-63
2023/08/26 00:13:14;;;;;;;12.52;8.10;;;;;;;17.17;100.00;100070.28;697672;28;4565;-63
2023/08/26 00:13:34;;;;;;;13.68;9.10;;;;;;;17.18;100.00;100074.63;697679;28;897;-63
2023/08/26 00:13:55;;;;;;;10.50;8.23;;;;;;;17.22;100.00;100076.22;696085;28;2418;-63
2023/08/26 00:14:16;;;;;;;11.70;8.52;;;;;;;17.24;100.00;100078.78;697843;28;1479;-63
2023/08/26 00:14:36;;;;;;;11.30;8.57;;;;;;;17.23;100.00;100069.16;697615;28;1199;-63
2023/08/26 00:14:56;;;;;;;11.88;8.50;;;;;;;17.20;100.00;100072.78;700100;28;2366;-63
2023/08/26 00:15:17;;;;;;;11.20;8.07;;;;;;;17.20;100.00;100072.78;703809;28;857;-63
2023/08/26 00:15:37;;;;;;;13.07;8.52;;;;;;;17.30;100.00;100073.25;702318;28;1323;-63
2023/08/26 00:15:58;;;;;;;11.77;7.97;;;;;;;17.40;100.00;100073.72;701727;28;2286;-62
2023/08/26 00:16:18;;;;;;;11.37;8.00;;;;;;;17.43;100.00;100068.31;703485;27;4301;-63
2023/08/26 00:16:38;;;;;;;11.00;8.07;;;;;;;17.38;100.00;100073.81;702205;28;860;-62
2023/08/26 00:16:59;;;;;;;10.10;7.97;;;;;;;17.35;100.00;100077.44;700948;28;1756;-63
2023/08/26 00:17:19;;;;;;;11.27;8.37;;;;;;;17.35;100.00;100069.50;701233;28;1182;-63
2023/08/26 00:17:39;;;;;;;11.70;8.67;;;;;;;17.31;100.00;100067.06;703229;28;963;-64
2023/08/26 00:18:00;;;;;;;12.33;8.50;;;;;;;17.28;100.00;100068.03;701194;28;2589;-62
2023/08/26 00:18:20;;;;;;;12.05;7.65;;;;;;;17.28;100.00;100070.69;702816;28;887;-64
2023/08/26 00:18:41;;;;;;;11.50;7.97;;;;;;;17.27;100.00;100076.88;702968;28;915;-62
2023/08/26 00:19:02;;;;;;;11.25;8.02;;;;;;;17.24;100.00;100076.16;699813;28;1740;-63
2023/08/26 00:19:22;;;;;;;10.05;7.63;;;;;;;17.24;100.00;100074.38;702270;28;4510;-62
2023/08/26 00:19:44;;;;;;;10.57;7.87;;;;;;;17.24;100.00;100068.22;702183;28;3894;-64
2023/08/26 00:20:06;;;;;;;9.98;7.93;;;;;;;17.23;100.00;100074.44;702381;28;987;-63
2023/08/26 00:20:27;;;;;;;10.82;7.90;;;;;;;17.22;100.00;100075.38;701689;28;1403;-63
2023/08/26 00:20:47;;;;;;;11.80;8.32;;;;;;;17.19;100.00;100069.28;701624;28;2217;-63
2023/08/26 00:21:10;;;;;;;13.18;8.20;;;;;;;17.19;100.00;100073.72;703278;28;801;-63
2023/08/26 00:21:31;;;;;;;11.85;8.45;;;;;;;17.18;100.00;100074.63;702029;28;1323;-63
2023/08/26 00:21:52;;;;;;;10.73;8.00;;;;;;;17.16;100.00;100072.03;701762;28;1822;-63
2023/08/26 00:22:12;;;;;;;11.68;8.02;;;;;;;17.16;100.00;100076.47;701869;28;4350;-63
2023/08/26 00:22:33;;;;;;;9.73;8.20;;;;;;;17.15;100.00;100075.59;701756;28;1300;-63
2023/08/26 00:22:53;;;;;;;11.20;8.50;;;;;;;17.14;100.00;100079.19;702006;28;2212;-63
2023/08/26 00:23:15;;;;;;;11.03;8.63;;;;;;;17.15;100.00;100082.69;701984;28;890;-63
2023/08/26 00:23:35;;;;;;;11.38;8.27;;;;;;;17.16;100.00;100079.13;702748;28;891;-62
2023/08/26 00:23:56;;;;;;;10.87;7.80;;;;;;;17.18;100.00;100082.53;701011;28;1996;-63
2023/08/26 00:24:17;;;;;;;11.37;8.30;;;;;;;17.19;100.00;100084.28;702634;28;896;-63
2023/08/26 00:24:37;;;;;;;11.38;8.43;;;;;;;17.30;100.00;100081.19;703322;28;951;-63
2023/08/26 00:24:58;;;;;;;14.05;8.57;;;;;;;17.31;100.00;100081.13;702049;28;1766;-63
2023/08/26 00:25:18;;;;;;;13.70;8.50;;;;;;;17.31;100.00;100083.75;701333;28;4475;-64
2023/08/26 00:25:39;;;;;;;12.25;8.65;;;;;;;17.35;100.00;100077.44;702233;28;1036;-63
2023/08/26 00:26:01;;;;;;;12.73;9.30;;;;;;;17.35;100.00;100080.06;699872;28;1710;-63
2023/08/26 00:26:22;;;;;;;13.07;9.15;;;;;;;17.33;100.00;100076.66;702467;28;864;-62
2023/08/26 00:26:42;;;;;;;13.18;8.90;;;;;;;17.29;100.00;100072.41;702035;28;954;-62
2023/08/26 00:27:03;;;;;;;13.23;9.43;;;;;;;17.32;100.00;100082.84;702317;28;1693;-63
2023/08/26 00:27:24;;;;;;;12.32;9.45;;;;;;;17.33;100.00;100081.06;701242;28;1435;-63
2023/08/26 00:27:45;;;;;;;13.98;9.88;;;;;;;17.30;100.00;100073.25;700213;28;1623;-63
2023/08/26 00:28:05;;;;;;;13.70;10.10;;;;;;;17.30;100.00;100083.84;700244;28;1569;-63
2023/08/26 00:28:25;;;;;;;12.50;9.55;;;;;;;17.26;100.00;100080.44;699051;28;4337;-63
2023/08/26 00:28:46;;;;;;;15.13;9.43;;;;;;;17.34;100.00;100069.56;701011;28;2390;-62
2023/08/26 00:29:07;;;;;;;12.65;9.15;;;;;;;17.38;100.00;100076.44;697143;28;1133;-63
2023/08/26 00:29:27;;;;;;;11.63;9.17;;;;;;;17.36;100.00;100075.63;697658;28;881;-63
2023/08/26 00:29:48;;;;;;;12.15;9.25;;;;;;;17.34;100.00;100074.84;695926;28;2702;-62
2023/08/26 00:30:09;;;;;;;12.77;9.67;;;;;;;17.30;100.00;100074.13;695248;28;1422;-62
2023/08/26 00:30:29;;;;;;;11.82;9.50;;;;;;;17.29;100.00;100072.41;698059;28;1368;-63
2023/08/26 00:30:59;;;;;;;12.95;9.32;;;;;;;17.26;100.00;100072.53;691750;28;2032;-63
2023/08/26 00:31:22;;;;;;;12.35;9.20;;;;;;;17.25;100.00;100078.75;696850;28;4310;-63
2023/08/26 00:31:42;;;;;;;11.35;8.75;;;;;;;17.26;100.00;100072.53;697703;28;915;-63
2023/08/26 00:32:03;;;;;;;13.30;8.90;;;;;;;17.30;100.00;100075.91;695437;28;1461;-63
2023/08/26 00:32:23;;;;;;;12.57;8.83;;;;;;;17.28;100.00;100078.63;698406;28;1556;-62
2023/08/26 00:32:44;;;;;;;13.25;9.45;;;;;;;17.30;100.00;100081.19;696591;28;1464;-63
2023/08/26 00:33:04;;;;;;;13.93;9.47;;;;;;;17.29;100.00;100076.81;696095;28;826;-62
2023/08/26 00:33:26;;;;;;;13.07;9.57;;;;;;;17.25;100.00;100078.75;695727;28;1227;-63
2023/08/26 00:33:47;;;;;;;13.00;9.50;;;;;;;17.25;100.00;100076.09;694174;28;2768;-64
2023/08/26 00:34:08;;;;;;;13.35;9.15;;;;;;;17.24;100.00;100069.09;698448;28;4362;-62
2023/08/26 00:34:28;;;;;;;12.85;9.07;;;;;;;17.24;100.00;100082.31;697693;28;1101;-62
2023/08/26 00:34:49;;;;;;;12.68;9.38;;;;;;;17.33;100.00;100078.41;697010;28;1755;-63
2023/08/26 00:35:10;;;;;;;12.90;9.83;;;;;;;17.31;100.00;100075.84;696885;28;1153;-64
2023/08/26 00:35:31;;;;;;;13.10;9.38;;;;;;;17.33;100.00;100075.78;696579;28;1745;-63
2023/08/26 00:35:51;;;;;;;12.98;9.40;;;;;;;17.39;100.00;100087.84;692717;28;1471;-64
2023/08/26 00:36:11;;;;;;;11.33;9.27;;;;;;;17.41;100.00;100078.09;698133;28;1416;-63
2023/08/26 00:36:32;;;;;;;12.10;9.40;;;;;;;17.40;100.00;100079.00;699855;28;1192;-63
2023/08/26 00:36:52;;;;;;;11.43;8.88;;;;;;;17.40;100.00;100081.66;697906;28;1532;-63
2023/08/26 00:37:13;;;;;;;12.63;9.17;;;;;;;17.41;100.00;100072.81;695934;28;4349;-63
2023/08/26 00:37:33;;;;;;;13.75;9.20;;;;;;;17.42;100.00;100077.16;697608;28;920;-62
2023/08/26 00:37:54;;;;;;;14.07;9.70;;;;;;;17.44;100.00;100078.81;697551;28;1876;-63
2023/08/26 00:38:16;;;;;;;13.65;10.43;;;;;;;17.44;100.00;100083.25;695609;28;1399;-63
2023/08/26 00:38:36;;;;;;;13.57;9.73;;;;;;;17.42;100.00;100085.06;696551;28;1429;-62
2023/08/26 00:38:57;;;;;;;12.77;9.40;;;;;;;17.40;100.00;100079.00;696555;28;1616;-63
2023/08/26 00:39:19;;;;;;;12.70;9.63;;;;;;;17.38;100.00;100080.84;694713;28;1481;-62
2023/08/26 00:39:40;;;;;;;14.27;9.45;;;;;;;17.36;100.00;100076.50;694895;28;883;-62
2023/08/26 00:40:00;;;;;;;14.30;9.67;;;;;;;17.35;100.00;100084.50;689267;28;1945;-63
2023/08/26 00:40:21;;;;;;;14.73;9.50;;;;;;;17.32;100.00;100084.59;694526;28;4373;-63
2023/08/26 00:40:41;;;;;;;15.20;9.97;;;;;;;17.35;100.00;100085.34;693930;28;1385;-63
2023/08/26 00:41:01;;;;;;;15.17;10.27;;;;;;;17.34;100.00;100082.78;692637;28;1765;-63
2023/08/26 00:41:22;;;;;;;14.23;9.57;;;;;;;17.34;100.00;100085.41;694080;28;761;-63
2023/08/26 00:41:42;;;;;;;14.70;9.93;;;;;;;17.36;100.00;100084.44;694289;28;1373;-59
2023/08/26 00:42:03;;;;;;;14.70;10.63;;;;;;;17.37;100.00;100085.28;692715;28;1880;-63
2023/08/26 00:42:23;;;;;;;14.40;11.07;;;;;;;17.37;100.00;100082.63;694063;28;5376;-62
2023/08/26 00:42:44;;;;;;;15.40;11.13;;;;;;;17.43;100.00;100085.03;693406;28;1347;-62
2023/08/26 00:43:10;;;;;;;15.33;11.13;;;;;;;17.42;100.00;100079.78;697083;28;1825;-61
2023/08/26 00:43:33;;;;;;;13.50;10.65;;;;;;;17.47;100.00;100085.75;698829;28;5302;-63
2023/08/26 00:43:53;;;;;;;13.43;10.65;;;;;;;17.47;100.00;100085.75;695063;28;1914;-63
2023/08/26 00:44:14;;;;;;;14.93;10.37;;;;;;;17.46;100.00;100082.25;695785;28;1066;-63
2023/08/26 00:44:35;;;;;;;13.85;10.00;;;;;;;17.43;100.00;100081.53;698595;28;1429;-63
2023/08/26 00:44:55;;;;;;;12.93;10.10;;;;;;;17.41;100.00;100086.88;695672;28;2356;-62
2023/08/26 00:45:15;;;;;;;13.35;9.82;;;;;;;17.39;100.00;100083.44;695936;28;1549;-66
2023/08/26 00:45:43;;;;;;;13.47;10.13;;;;;;;17.43;100.00;100094.72;701521;28;1393;-62
2023/08/26 00:46:04;;;;;;;15.45;10.07;;;;;;;17.49;100.00;100084.75;699167;28;2209;-61
2023/08/26 00:46:26;;;;;;;15.07;10.00;;;;;;;17.48;100.00;100082.19;697327;28;4408;-62
2023/08/26 00:46:47;;;;;;;14.52;9.45;;;;;;;17.39;100.00;100086.09;698797;28;1829;-62
2023/08/26 00:47:07;;;;;;;13.83;9.70;;;;;;;17.35;100.00;100082.72;699982;28;1263;-63
2023/08/26 00:47:28;;;;;;;14.25;10.23;;;;;;;17.31;100.00;100086.41;696560;28;1226;-63
2023/08/26 00:47:48;;;;;;;14.00;9.57;;;;;;;17.41;100.00;100091.31;694632;28;1488;-62
2023/08/26 00:48:11;;;;;;;14.82;10.50;;;;;;;17.39;100.00;100087.84;698122;28;943;-62
2023/08/26 00:48:31;;;;;;;17.35;11.20;;;;;;;17.36;100.00;100089.72;695048;28;1432;-63
2023/08/26 00:48:52;;;;;;;16.42;11.27;;;;;;;17.48;100.00;100083.03;694297;28;2712;-61
2023/08/26 00:49:12;;;;;;;15.00;11.00;;;;;;;17.47;100.00;100091.03;695069;28;4499;-62
2023/08/26 00:49:34;;;;;;;14.00;10.70;;;;;;;17.43;100.00;100089.44;695763;28;1460;-63
2023/08/26 00:49:54;;;;;;;14.00;10.85;;;;;;;17.41;100.00;100088.66;696955;28;1501;-62
2023/08/26 00:50:14;;;;;;;13.77;10.73;;;;;;;17.47;100.00;100085.75;701256;28;1130;-62
2023/08/26 00:50:37;;;;;;;12.63;10.60;;;;;;;17.49;100.00;100097.13;703045;28;791;-61
2023/08/26 00:50:58;;;;;;;13.80;10.88;;;;;;;17.43;100.00;100092.97;705560;27;1851;-63
2023/08/26 00:51:19;;;;;;;15.40;10.30;;;;;;;17.39;100.00;100093.13;707643;27;1251;-63
2023/08/26 00:51:39;;;;;;;16.58;10.45;;;;;;;17.35;100.00;100095.06;705749;27;1658;-63
2023/08/26 00:52:01;;;;;;;15.32;10.60;;;;;;;17.34;100.00;100094.19;701663;28;2483;-62
2023/08/26 00:52:21;;;;;;;15.05;10.60;;;;;;;17.38;100.00;100092.28;701051;28;4469;-63
2023/08/26 00:52:44;;;;;;;14.43;10.10;;;;;;;17.39;100.00;100098.44;699839;28;919;-62
2023/08/26 00:53:06;;;;;;;13.07;9.77;;;;;;;17.36;100.00;100100.28;697274;28;1463;-62
2023/08/26 00:53:27;;;;;;;15.00;10.02;;;;;;;17.34;100.00;100099.47;699858;28;892;-62
2023/08/26 00:53:48;;;;;;;14.88;10.00;;;;;;;17.30;100.00;100097.88;697774;28;921;-63
2023/08/26 00:54:12;;;;;;;13.50;9.68;;;;;;;17.28;100.00;100097.09;698522;28;1913;-62
2023/08/26 00:54:35;;;;;;;12.70;9.60;;;;;;;17.28;100.00;100102.38;697594;28;928;-63
2023/08/26 00:54:56;;;;;;;13.13;9.65;;;;;;;17.23;100.00;100103.50;697868;28;2332;-63
2023/08/26 00:55:16;;;;;;;12.37;9.20;;;;;;;17.18;100.00;100099.28;698557;28;4292;-63
2023/08/26 00:55:39;;;;;;;12.75;8.90;;;;;;;17.18;100.00;100096.63;698852;28;1357;-63
2023/08/26 00:56:00;;;;;;;11.75;8.65;;;;;;;17.16;100.00;100097.63;697694;28;1435;-62
2023/08/26 00:56:21;;;;;;;14.68;9.20;;;;;;;17.15;100.00;100098.53;701319;28;1028;-63
2023/08/26 00:56:42;;;;;;;13.40;9.15;;;;;;;17.19;100.00;100097.47;697593;28;2082;-63
2023/08/26 00:57:04;;;;;;;14.02;8.98;;;;;;;17.24;100.00;100099.91;699701;28;2355;-62
2023/08/26 00:57:25;;;;;;;12.63;9.50;;;;;;;17.24;100.00;100105.19;703555;27;1315;-62
2023/08/26 00:57:45;;;;;;;14.17;9.57;;;;;;;17.23;100.00;100096.44;704503;28;1286;-63
2023/08/26 00:58:07;;;;;;;14.18;9.43;;;;;;;17.26;100.00;100098.94;703457;28;1010;-62
2023/08/26 00:58:28;;;;;;;13.63;9.27;;;;;;;17.23;100.00;100103.50;701474;28;5906;-61
2023/08/26 00:58:49;;;;;;;11.82;8.73;;;;;;;17.27;100.00;100103.31;698786;28;1491;-62
2023/08/26 00:59:10;;;;;;;11.17;8.33;;;;;;;17.31;100.00;100102.25;695726;28;1430;-63
2023/08/26 00:59:30;;;;;;;11.60;8.85;;;;;;;17.26;100.00;100098.94;696365;28;913;-63
2023/08/26 00:59:51;;;;;;;12.60;8.70;;;;;;;17.26;100.00;100098.94;695656;28;1685;-62
2023/08/26 01:00:12;;;;;;;12.00;8.53;;;;;;;17.30;100.00;100094.41;698672;28;939;-62
2023/08/26 01:00:35;;;;;;;12.93;9.15;;;;;;;17.33;100.00;100095.13;696271;28;1377;-62
2023/08/26 01:00:56;;;;;;;13.30;9.75;;;;;;;17.31;100.00;100089.03;696532;28;2247;-63
2023/08/26 01:01:17;;;;;;;12.93;9.32;;;;;;;17.28;100.00;100094.47;700869;28;4351;-62
2023/08/26 01:01:38;;;;;;;12.07;8.55;;;;;;;17.23;100.00;100099.06;703956;28;1077;-63
2023/08/26 01:02:00;;;;;;;12.80;8.90;;;;;;;17.23;100.00;100098.22;697785;28;2728;-62
2023/08/26 01:02:22;;;;;;;12.75;8.65;;;;;;;17.20;100.00;100099.19;698934;28;1524;-63
2023/08/26 01:02:45;;;;;;;12.70;9.20;;;;;;;17.22;100.00;100099.97;698355;28;877;-62
2023/08/26 01:03:06;;;;;;;13.15;9.65;;;;;;;17.19;100.00;100105.41;698142;28;2293;-64
2023/08/26 01:03:27;;;;;;;15.00;10.57;;;;;;;17.15;100.00;100103.81;699991;28;1524;-62
2023/08/26 01:03:48;;;;;;;15.20;10.05;;;;;;;17.16;100.00;100101.09;699714;28;2086;-62
2023/08/26 01:04:10;;;;;;;13.65;10.10;;;;;;;17.21;100.00;100106.22;701125;28;4411;-63
2023/08/26 01:04:30;;;;;;;13.52;9.90;;;;;;;17.18;100.00;100112.47;701677;28;1266;-63
2023/08/26 01:04:51;;;;;;;14.43;9.63;;;;;;;17.24;100.00;100110.47;696830;28;2361;-63
2023/08/26 01:05:12;;;;;;;12.73;9.52;;;;;;;17.24;100.00;100106.09;695377;28;1348;-64
2023/08/26 01:05:33;;;;;;;13.75;9.73;;;;;;;17.25;100.00;100112.22;696088;28;1373;-63
2023/08/26 01:05:54;;;;;;;12.82;10.23;;;;;;;17.22;100.00;100113.19;697028;28;1823;-63
2023/08/26 01:06:14;;;;;;;12.47;9.47;;;;;;;17.21;100.00;100114.13;700689;28;1262;-63
2023/08/26 01:06:34;;;;;;;13.13;9.07;;;;;;;17.29;100.00;100119.09;701448;28;1453;-62
2023/08/26 01:06:55;;;;;;;13.70;9.20;;;;;;;17.33;100.00;100105.72;700727;28;2548;-62
2023/08/26 01:07:15;;;;;;;13.18;9.90;;;;;;;17.33;100.00;100111.00;701629;28;4340;-62
2023/08/26 01:07:36;;;;;;;14.77;9.63;;;;;;;17.26;100.00;100112.16;698327;28;1387;-62
2023/08/26 01:07:58;;;;;;;12.73;9.40;;;;;;;17.24;100.00;100106.09;698535;28;1524;-62
2023/08/26 01:08:19;;;;;;;12.65;9.77;;;;;;;17.26;100.00;100109.50;696210;28;1240;-62
2023/08/26 01:08:40;;;;;;;12.48;8.88;;;;;;;17.23;100.00;100108.78;696239;28;1447;-63
2023/08/26 01:09:00;;;;;;;13.18;9.02;;;;;;;17.20;100.00;100112.41;692223;28;1629;-62
2023/08/26 01:09:21;;;;;;;13.73;9.60;;;;;;;17.17;100.00;100112.53;694797;28;1386;-63
2023/08/26 01:09:42;;;;;;;13.75;9.32;;;;;;;17.14;100.00;100113.53;694428;28;1279;-63
2023/08/26 01:10:05;;;;;;;11.90;8.95;;;;;;;17.13;100.00;100108.31;694589;28;1124;-62
2023/08/26 01:10:41;;;;;;;13.57;9.60;;;;;;;17.15;100.00;100106.44;697831;28;4487;-63
2023/08/26 01:11:30;;;;;;;11.57;8.88;;;;;;;17.23;100.00;100109.63;701608;28;1904;-63
2023/08/26 01:12:17;;;;;;;15.23;9.85;;;;;;;17.21;100.00;100108.84;701646;28;1844;-62
2023/08/26 01:12:57;;;;;;;13.55;10.32;;;;;;;17.17;100.00;100101.97;701269;28;1447;-63
2023/08/26 01:13:24;;;;;;;13.25;9.32;;;;;;;17.25;100.00;100107.81;701825;28;4473;-62
2023/08/26 01:14:07;;;;;;;13.43;9.45;;;;;;;17.32;100.00;100105.75;701902;28;843;-62
2023/08/26 01:14:44;;;;;;;14.45;9.25;;;;;;;17.25;100.00;100107.81;701982;28;908;-62
2023/08/26 01:15:09;;;;;;;14.48;9.48;;;;;;;17.21;100.00;100114.13;700740;28;1741;-62
2023/08/26 01:15:31;;;;;;;12.05;8.93;;;;;;;17.16;100.00;100113.47;701945;28;1372;-62
2023/08/26 01:15:53;;;;;;;12.63;9.63;;;;;;;17.19;100.00;100113.31;701015;28;2509;-62
2023/08/26 01:16:15;;;;;;;12.82;9.95;;;;;;;17.12;100.00;100111.88;702521;28;4376;-61
2023/08/26 01:16:37;;;;;;;13.70;9.57;;;;;;;17.11;100.00;100111.00;697873;28;927;-63
2023/08/26 01:16:59;;;;;;;13.38;9.52;;;;;;;17.09;100.00;100120.75;694321;28;1756;-63
2023/08/26 01:17:21;;;;;;;15.27;10.90;;;;;;;17.11;100.00;100118.06;698901;28;896;-62
2023/08/26 01:17:41;;;;;;;15.55;11.35;;;;;;;17.09;100.00;100122.56;698691;28;1245;-62
2023/08/26 01:18:05;;;;;;;15.05;11.57;;;;;;;17.07;100.00;100119.09;694128;28;2002;-62
2023/08/26 01:18:26;;;;;;;16.13;11.77;;;;;;;17.09;100.00;100128.69;696606;28;928;-62
2023/08/26 01:18:47;;;;;;;15.55;11.35;;;;;;;17.09;100.00;100126.03;697197;28;2096;-62
2023/08/26 01:19:15;;;;;;;14.00;10.48;;;;;;;17.15;100.00;100124.94;695690;28;4629;-63
2023/08/26 01:19:37;;;;;;;14.95;10.93;;;;;;;17.10;100.00;100121.63;693837;28;1295;-64
2023/08/26 01:19:59;;;;;;;15.55;11.85;;;;;;;17.04;100.00;100127.16;692527;28;1712;-63
2023/08/26 01:20:20;;;;;;;14.65;12.18;;;;;;;16.99;100.00;100122.06;691608;28;1471;-61
2023/08/26 01:20:42;;;;;;;17.25;12.18;;;;;;;17.00;100.00;100124.66;694006;28;1536;-61
2023/08/26 01:21:03;;;;;;;15.38;12.13;;;;;;;16.98;100.00;100125.63;694468;28;1457;-62
2023/08/26 01:21:31;;;;;;;15.85;11.65;;;;;;;17.09;100.00;100125.19;697104;28;1238;-64
2023/08/26 01:21:56;;;;;;;15.15;11.20;;;;;;;17.19;100.00;100122.09;696419;28;2312;-61
2023/08/26 01:22:22;;;;;;;14.10;11.05;;;;;;;17.20;100.00;100117.69;698783;28;4436;-61
2023/08/26 01:22:45;;;;;;;15.32;11.30;;;;;;;17.26;100.00;100121.84;694777;28;1221;-61
2023/08/26 01:23:18;;;;;;;15.95;10.63;;;;;;;17.19;100.00;100123.88;689544;28;1085;-62
2023/08/26 01:23:41;;;;;;;13.40;9.90;;;;;;;17.19;100.00;100121.25;691799;28;928;-62
2023/08/26 01:24:03;;;;;;;12.20;10.15;;;;;;;17.23;100.00;100122.84;690956;28;1977;-62
2023/08/26 01:24:25;;;;;;;12.32;9.48;;;;;;;17.20;100.00;100133.53;694543;28;1224;-61
2023/08/26 01:24:45;;;;;;;12.75;9.32;;;;;;;17.18;100.00;100122.16;698739;28;1371;-62
2023/08/26 01:25:07;;;;;;;12.93;8.88;;;;;;;17.21;100.00;100129.09;698050;28;1703;-62
2023/08/26 01:25:28;;;;;;;15.43;9.20;;;;;;;17.19;100.00;100124.72;700389;28;4783;-62
2023/08/26 01:25:49;;;;;;;12.90;8.68;;;;;;;17.18;100.00;100132.72;698959;28;2580;-62
2023/08/26 01:26:10;;;;;;;10.90;8.38;;;;;;;17.21;100.00;100137.91;703632;28;856;-62
2023/08/26 01:26:31;;;;;;;11.52;7.95;;;;;;;17.20;100.00;100136.19;699881;28;966;-61
2023/08/26 01:26:52;;;;;;;11.43;7.90;;;;;;;17.17;100.00;100137.16;698180;28;1814;-61
2023/08/26 01:27:12;;;;;;;12.40;7.90;;;;;;;17.20;100.00;100133.53;698005;28;1458;-61
2023/08/26 01:27:33;;;;;;;10.38;7.72;;;;;;;17.18;100.00;100140.66;697915;28;1374;-61
2023/08/26 01:27:53;;;;;;;10.77;7.30;;;;;;;17.19;100.00;100137.09;696209;28;1439;-62
2023/08/26 01:28:16;;;;;;;10.23;7.47;;;;;;;17.17;100.00;100136.31;694436;28;4655;-61
2023/08/26 01:28:36;;;;;;;9.90;7.50;;;;;;;17.07;100.00;100145.50;697218;28;1337;-63
2023/08/26 01:28:57;;;;;;;9.90;7.20;;;;;;;17.08;100.00;100147.25;694632;28;1867;-63
2023/08/26 01:29:18;;;;;;;10.13;7.00;;;;;;;17.12;100.00;100143.56;695567;28;900;-61
2023/08/26 01:29:38;;;;;;;9.80;6.70;;;;;;;17.12;100.00;100148.84;696479;28;1312;-61
2023/08/26 01:30:02;;;;;;;9.27;7.13;;;;;;;17.05;100.00;100150.00;699317;28;1532;-61
2023/08/26 01:30:27;;;;;;;10.05;6.65;;;;;;;17.01;100.00;100152.75;701059;28;1468;-61
2023/08/26 01:30:48;;;;;;;7.97;6.18;;;;;;;16.88;100.00;100151.50;698403;28;1591;-61
2023/08/26 01:31:13;;;;;;;9.63;6.85;;;;;;;16.93;100.00;100149.53;697271;28;4275;-62
2023/08/26 01:31:36;;;;;;;8.60;6.95;;;;;;;16.83;100.00;100148.16;692870;28;1422;-63
2023/08/26 01:32:18;;;;;;;8.88;7.03;;;;;;;16.80;100.00;100150.94;688176;28;2285;-62
2023/08/26 01:33:03;;;;;;;9.10;6.82;;;;;;;16.71;100.00;100152.13;696718;28;840;-63
2023/08/26 01:33:29;;;;;;;8.80;6.40;;;;;;;16.56;100.00;100164.16;693939;28;1323;-63
2023/08/26 01:34:09;;;;;;;8.23;6.20;;;;;;;16.62;100.00;100149.88;699074;28;1790;-61
2023/08/26 01:34:32;;;;;;;10.38;6.80;;;;;;;16.55;100.00;100151.03;702276;28;4726;-61
2023/08/26 01:34:57;;;;;;;11.65;6.80;;;;;;;16.54;100.00;100155.41;698816;28;1985;-61
2023/08/26 01:35:27;;;;;;;8.63;6.20;;;;;;;16.49;100.00;100160.00;700920;28;994;-61
2023/08/26 01:35:54;;;;;;;10.13;6.63;;;;;;;16.42;100.00;100158.50;700801;28;1367;-62
2023/08/26 01:36:19;;;;;;;9.45;6.50;;;;;;;16.42;100.00;100161.16;703292;28;2279;-60
2023/08/26 01:36:43;;;;;;;8.88;5.97;;;;;;;16.44;100.00;100167.25;702316;28;1499;-62
2023/08/26 01:37:08;;;;;;;8.55;6.00;;;;;;;16.48;100.00;100161.78;702963;28;1668;-60
2023/08/26 01:37:30;;;;;;;9.32;5.85;;;;;;;16.50;100.00;100161.72;702439;28;4668;-61
2023/08/26 01:37:52;;;;;;;10.00;5.70;;;;;;;16.46;100.00;100171.56;702854;28;1549;-62
2023/08/26 01:38:16;;;;;;;8.73;5.70;;;;;;;16.47;100.00;100167.13;701577;28;1548;-62
2023/08/26 01:38:39;;;;;;;8.55;5.82;;;;;;;16.50;100.00;100161.72;700532;28;1448;-61
2023/08/26 01:38:59;;;;;;;7.70;5.68;;;;;;;16.43;100.00;100171.66;695540;28;1498;-60
2023/08/26 01:39:20;;;;;;;10.00;5.80;;;;;;;16.46;100.00;100166.28;696827;28;1294;-62
2023/08/26 01:39:41;;;;;;;7.85;5.80;;;;;;;16.47;100.00;100165.34;699268;28;1646;-62
2023/08/26 01:40:06;;;;;;;7.40;5.60;;;;;;;16.49;100.00;100165.28;698751;28;1544;-60
2023/08/26 01:40:28;;;;;;;8.20;5.55;;;;;;;16.49;100.00;100168.78;701772;28;4328;-63
2023/08/26 01:40:56;;;;;;;9.52;5.82;;;;;;;16.40;100.00;100168.28;704611;28;1325;-63
2023/08/26 01:41:19;;;;;;;10.07;5.88;;;;;;;16.34;100.00;100167.56;703476;28;908;-62
2023/08/26 01:41:50;;;;;;;8.27;5.78;;;;;;;16.34;100.00;100178.13;699931;28;1420;-62
2023/08/26 01:42:12;;;;;;;8.38;5.32;;;;;;;16.37;100.00;100163.97;702658;28;5818;-61
2023/08/26 01:42:36;;;;;;;8.43;5.40;;;;;;;16.36;100.00;100175.44;701595;28;1037;-60
2023/08/26 01:42:58;;;;;;;8.25;5.63;;;;;;;16.39;100.00;100175.31;701952;28;2940;-61
2023/08/26 01:43:20;;;;;;;8.82;5.55;;;;;;;16.32;100.00;100173.81;701894;28;4550;-61